createdAt,value
2022-10-06T08:00:48.789Z,2.30
2022-10-06T08:16:19.788Z,2.28
2022-10-06T08:31:23.113Z,1.98
2022-10-06T08:46:31.659Z,1.95
2022-10-06T09:01:53.568Z,1.75
2022-10-06T09:17:01.437Z,1.80
2022-10-06T09:32:03.467Z,1.30
2022-10-06T09:47:37.385Z,1.35
2022-10-06T10:02:41.401Z,1.23
2022-10-06T10:17:47.081Z,1.10
2022-10-06T10:32:57.667Z,2.28
2022-10-06T10:48:01.152Z,1.98
2022-10-06T11:03:03.824Z,1.70
2022-10-06T11:18:22.527Z,1.40
2022-10-06T11:33:42.032Z,1.67
2022-10-06T11:48:43.944Z,1.45
2022-10-06T12:03:48.746Z,1.30
2022-10-06T12:19:08.419Z,3.38
2022-10-06T12:50:31.797Z,1.88
2022-10-06T13:05:36.014Z,1.75
2022-10-06T13:20:49.537Z,3.30
2022-10-06T13:35:54.349Z,1.10
2022-10-06T13:50:56.416Z,1.52
2022-10-06T14:06:26.663Z,2.10
2022-10-06T14:21:42.027Z,1.48
2022-10-06T14:36:46.568Z,2.17
2022-10-06T14:51:48.320Z,1.92
2022-10-06T15:07:09.408Z,1.55
2022-10-06T15:22:11.176Z,2.13
2022-10-06T15:37:12.968Z,2.20
2022-10-06T15:52:14.731Z,2.28
2022-10-06T16:07:18.487Z,1.92
2022-10-06T16:22:21.928Z,2.67
2022-10-06T16:37:23.690Z,2.63
2022-10-06T16:52:25.486Z,5.15
2022-10-06T17:07:28.228Z,6.47
2022-10-06T17:22:30.000Z,7.20
2022-10-06T17:37:32.091Z,3.20
2022-10-06T17:52:38.977Z,2.10
2022-10-06T18:07:41.474Z,2.50
2022-10-06T18:22:43.640Z,3.43
2022-10-06T18:37:46.261Z,3.43
2022-10-06T18:52:48.592Z,6.73
2022-10-06T19:07:53.018Z,9.50
2022-10-06T19:22:54.742Z,5.10
2022-10-06T19:37:56.483Z,8.47
2022-10-06T19:52:58.343Z,5.47
2022-10-06T20:08:00.261Z,3.93
2022-10-06T20:23:02.201Z,4.63
2022-10-06T20:38:06.805Z,4.07
2022-10-06T20:53:09.733Z,4.60
2022-10-06T21:08:11.852Z,4.00
2022-10-06T21:23:14.812Z,4.77
2022-10-06T21:38:16.671Z,3.93
2022-10-06T21:53:18.705Z,3.37
2022-10-06T22:08:20.882Z,3.47
2022-10-06T22:23:22.800Z,2.77
2022-10-06T22:38:24.660Z,3.40
2022-10-06T22:53:29.503Z,5.57
2022-10-06T23:08:35.190Z,4.77
2022-10-06T23:23:37.728Z,4.40
2022-10-06T23:38:39.717Z,3.57
2022-10-06T23:53:43.122Z,3.23
